createdAt,value
2022-12-29T00:00:15.569Z,2.03
2022-12-29T00:02:43.142Z,1.80
2022-12-29T00:05:10.472Z,1.90
2022-12-29T00:07:37.617Z,1.58
2022-12-29T00:10:04.965Z,1.83
2022-12-29T00:12:51.941Z,1.75
2022-12-29T00:15:39.077Z,1.65
2022-12-29T00:18:06.546Z,1.70
2022-12-29T00:20:56.337Z,1.90
2022-12-29T00:23:43.638Z,1.73
2022-12-29T00:26:34.097Z,1.73
2022-12-29T00:29:21.106Z,1.65
2022-12-29T00:32:08.061Z,1.80
2022-12-29T00:34:55.066Z,1.70
2022-12-29T00:37:42.062Z,1.60
2022-12-29T00:40:29.298Z,1.70
2022-12-29T00:43:16.265Z,1.60
2022-12-29T00:45:43.683Z,2.00
2022-12-29T00:48:10.706Z,1.83
2022-12-29T00:50:37.973Z,1.95
2022-12-29T00:53:05.116Z,1.80
2022-12-29T00:55:32.161Z,1.83
2022-12-29T00:57:59.385Z,2.10
2022-12-29T01:00:26.546Z,1.75
2022-12-29T01:02:53.815Z,1.70
2022-12-29T01:05:21.036Z,1.63
2022-12-29T01:07:48.133Z,1.67
2022-12-29T01:10:16.134Z,1.70
2022-12-29T01:12:44.689Z,2.08
2022-12-29T01:15:13.416Z,1.90
2022-12-29T01:17:40.557Z,1.67
2022-12-29T01:20:07.960Z,1.83
2022-12-29T01:22:35.016Z,1.80
2022-12-29T01:25:02.079Z,1.80
2022-12-29T01:27:31.052Z,1.80
2022-12-29T01:29:58.415Z,1.70
2022-12-29T01:32:25.579Z,2.00
2022-12-29T01:34:52.576Z,1.90
2022-12-29T01:37:19.691Z,1.70
2022-12-29T01:39:46.803Z,2.00
2022-12-29T01:42:18.198Z,1.92
2022-12-29T01:44:51.883Z,1.70
2022-12-29T01:47:39.175Z,1.85
2022-12-29T01:50:10.790Z,2.15
2022-12-29T01:52:39.300Z,1.70
2022-12-29T01:55:06.738Z,1.63
2022-12-29T01:57:36.060Z,1.60
2022-12-29T02:00:06.156Z,1.60
2022-12-29T02:02:33.818Z,1.58
2022-12-29T02:05:05.091Z,1.58
2022-12-29T02:07:33.074Z,1.60
2022-12-29T02:10:00.985Z,1.80
2022-12-29T02:12:27.612Z,1.70
2022-12-29T02:14:58.306Z,1.50
2022-12-29T02:17:41.061Z,1.50
2022-12-29T02:20:15.674Z,1.60
2022-12-29T02:22:50.137Z,1.50
2022-12-29T02:25:17.209Z,1.50
2022-12-29T02:27:59.783Z,1.42
2022-12-29T02:30:33.046Z,1.58
2022-12-29T02:33:15.238Z,1.40
2022-12-29T02:35:58.065Z,1.70
2022-12-29T02:38:45.088Z,1.67
2022-12-29T02:41:41.272Z,1.67
2022-12-29T02:44:14.400Z,1.40
2022-12-29T02:47:01.375Z,1.42
2022-12-29T02:49:28.667Z,1.40
2022-12-29T02:52:00.447Z,1.50
2022-12-29T02:54:43.417Z,1.50
2022-12-29T02:57:13.375Z,1.60
2022-12-29T02:59:41.866Z,1.33
2022-12-29T03:02:25.308Z,1.60
2022-12-29T03:05:01.058Z,1.70
2022-12-29T03:07:44.355Z,1.40
2022-12-29T03:10:26.365Z,1.40
2022-12-29T03:13:22.959Z,1.60
2022-12-29T03:16:09.965Z,1.50
2022-12-29T03:18:43.083Z,1.52
2022-12-29T03:21:13.476Z,1.63
2022-12-29T03:23:43.718Z,1.50
2022-12-29T03:26:13.433Z,1.42
2022-12-29T03:28:42.742Z,1.50
2022-12-29T03:31:10.707Z,1.42
2022-12-29T03:33:39.283Z,1.40
2022-12-29T03:36:07.713Z,1.52
2022-12-29T03:38:39.556Z,1.65
2022-12-29T03:41:09.333Z,1.60
2022-12-29T03:43:36.599Z,1.67
2022-12-29T03:46:03.690Z,1.35
2022-12-29T03:48:30.832Z,1.48
2022-12-29T03:50:57.920Z,1.73
2022-12-29T03:53:24.998Z,1.40
2022-12-29T03:55:52.315Z,1.50
2022-12-29T03:58:19.360Z,1.42
2022-12-29T04:00:46.484Z,1.58
2022-12-29T04:03:13.568Z,1.40
2022-12-29T04:05:40.680Z,1.60
2022-12-29T04:08:07.721Z,1.70
2022-12-29T04:10:34.753Z,1.52
2022-12-29T04:13:01.893Z,1.50
2022-12-29T04:15:29.111Z,1.60
2022-12-29T04:17:56.268Z,1.67
2022-12-29T04:20:43.233Z,1.65
2022-12-29T04:23:10.374Z,1.50
2022-12-29T04:25:37.400Z,1.70
2022-12-29T04:28:04.593Z,1.60
2022-12-29T04:30:31.651Z,1.58
2022-12-29T04:32:58.731Z,1.65
2022-12-29T04:35:25.805Z,1.52
2022-12-29T04:37:52.861Z,1.58
2022-12-29T04:40:19.941Z,1.70
2022-12-29T04:42:47.005Z,1.40
2022-12-29T04:45:14.110Z,1.50
2022-12-29T04:47:41.290Z,1.85
2022-12-29T04:50:08.564Z,1.50
2022-12-29T04:52:35.690Z,1.58
2022-12-29T04:55:02.826Z,1.50
2022-12-29T04:57:30.102Z,1.60
2022-12-29T04:59:57.275Z,1.50
2022-12-29T05:02:24.887Z,1.50
2022-12-29T05:04:52.146Z,1.50
2022-12-29T05:07:19.206Z,1.67
2022-12-29T05:09:46.281Z,1.52
2022-12-29T05:12:14.510Z,1.73
2022-12-29T05:14:41.767Z,1.60
2022-12-29T05:17:08.814Z,1.77
2022-12-29T05:19:35.897Z,1.67
2022-12-29T05:22:02.990Z,1.70
2022-12-29T05:24:29.633Z,1.90
2022-12-29T05:26:56.813Z,1.70
2022-12-29T05:29:23.866Z,1.90
2022-12-29T05:31:51.059Z,1.70
2022-12-29T05:34:18.202Z,1.70
2022-12-29T05:36:45.483Z,1.70
2022-12-29T05:39:12.508Z,1.57
2022-12-29T05:41:39.604Z,1.60
2022-12-29T05:44:06.737Z,1.60
2022-12-29T05:46:33.911Z,1.90
2022-12-29T05:49:01.045Z,1.67
2022-12-29T05:51:28.115Z,1.83
2022-12-29T05:53:55.219Z,2.22
2022-12-29T05:56:22.330Z,1.80
2022-12-29T05:58:49.426Z,1.75
2022-12-29T06:01:16.489Z,1.70
2022-12-29T06:03:48.133Z,1.60
2022-12-29T06:06:15.710Z,2.08
2022-12-29T06:08:42.791Z,1.80
2022-12-29T06:11:09.586Z,1.83
2022-12-29T06:13:36.724Z,2.10
2022-12-29T06:16:03.903Z,2.17
2022-12-29T06:18:31.105Z,2.00
2022-12-29T06:21:02.125Z,1.70
2022-12-29T06:23:29.558Z,2.58
2022-12-29T06:25:56.631Z,2.10
2022-12-29T06:28:23.768Z,1.65
2022-12-29T06:30:51.024Z,1.85
2022-12-29T06:33:18.182Z,1.75
2022-12-29T06:35:46.673Z,2.03
2022-12-29T06:38:13.898Z,1.60
2022-12-29T06:40:42.203Z,1.60
2022-12-29T06:43:09.357Z,1.70
2022-12-29T06:45:36.431Z,1.42
2022-12-29T06:48:03.655Z,1.70
2022-12-29T06:50:30.777Z,1.55
2022-12-29T06:52:57.842Z,1.75
2022-12-29T06:55:24.945Z,1.60
2022-12-29T06:57:52.146Z,1.80
2022-12-29T07:00:22.693Z,1.88
2022-12-29T07:02:50.268Z,1.70
2022-12-29T07:05:17.413Z,1.60
2022-12-29T07:07:44.765Z,1.50
2022-12-29T07:10:11.853Z,1.80
2022-12-29T07:12:38.968Z,1.58
2022-12-29T07:15:06.332Z,1.80
2022-12-29T07:17:33.414Z,1.50
2022-12-29T07:20:01.016Z,1.60
2022-12-29T07:22:28.380Z,1.60
2022-12-29T07:24:55.600Z,1.67
2022-12-29T07:27:22.750Z,1.80
2022-12-29T07:29:49.854Z,1.75
2022-12-29T07:32:17.022Z,1.60
2022-12-29T07:34:46.217Z,1.60
2022-12-29T07:37:14.973Z,1.50
2022-12-29T07:39:42.041Z,1.58
2022-12-29T07:42:09.183Z,1.50
2022-12-29T07:44:37.489Z,1.48
2022-12-29T07:47:04.747Z,1.40
2022-12-29T07:49:31.836Z,1.50
2022-12-29T07:51:58.969Z,1.60
2022-12-29T07:54:26.083Z,1.50
2022-12-29T07:56:53.629Z,1.40
2022-12-29T07:59:20.799Z,1.52
2022-12-29T08:01:48.063Z,1.50
2022-12-29T08:04:15.272Z,1.45
2022-12-29T08:06:42.425Z,1.50
2022-12-29T08:09:14.983Z,1.40
2022-12-29T08:11:44.373Z,1.50
2022-12-29T08:14:11.510Z,1.60
2022-12-29T08:16:38.610Z,1.40
2022-12-29T08:19:06.061Z,1.58
2022-12-29T08:21:33.206Z,1.30
2022-12-29T08:24:00.558Z,1.58
2022-12-29T08:26:27.717Z,1.45
2022-12-29T08:28:56.639Z,1.60
2022-12-29T08:31:24.209Z,1.58
2022-12-29T08:33:51.362Z,1.45
2022-12-29T08:36:18.487Z,1.33
2022-12-29T08:38:45.602Z,1.65
2022-12-29T08:41:12.730Z,1.60
2022-12-29T08:43:40.013Z,1.40
2022-12-29T08:46:07.137Z,1.50
2022-12-29T08:48:34.244Z,1.42
2022-12-29T08:51:01.437Z,1.45
2022-12-29T08:53:28.480Z,1.40
2022-12-29T08:56:02.437Z,1.40
2022-12-29T08:58:32.165Z,1.52
2022-12-29T09:00:59.223Z,1.52
2022-12-29T09:03:55.162Z,1.60
2022-12-29T09:06:13.504Z,1.67
2022-12-29T09:08:40.640Z,1.60
2022-12-29T09:11:12.600Z,1.67
2022-12-29T09:13:40.210Z,1.50
2022-12-29T09:16:07.550Z,1.40
2022-12-29T09:18:34.707Z,1.60
2022-12-29T09:21:03.790Z,1.40
2022-12-29T09:23:31.171Z,1.33
2022-12-29T09:25:58.329Z,1.50
2022-12-29T09:28:25.743Z,1.60
2022-12-29T09:30:52.917Z,1.50
2022-12-29T09:33:20.147Z,1.45
2022-12-29T09:35:51.454Z,1.50
2022-12-29T09:38:18.602Z,1.70
2022-12-29T09:40:47.691Z,1.35
2022-12-29T09:43:22.614Z,1.50
2022-12-29T09:46:04.225Z,1.50
2022-12-29T09:48:33.744Z,1.50
2022-12-29T09:51:03.626Z,1.43
2022-12-29T09:53:33.600Z,1.50
2022-12-29T09:56:02.491Z,1.30
2022-12-29T09:58:30.942Z,1.45
2022-12-29T10:01:18.097Z,1.58
2022-12-29T10:03:54.202Z,1.60
2022-12-29T10:06:21.261Z,1.55
2022-12-29T10:08:49.448Z,1.55
2022-12-29T10:11:36.467Z,1.70
2022-12-29T10:14:15.999Z,1.67
2022-12-29T10:16:48.853Z,1.80
2022-12-29T10:19:32.927Z,1.40
2022-12-29T10:22:20.319Z,1.73
2022-12-29T10:24:48.862Z,1.80
2022-12-29T10:27:17.746Z,1.70
2022-12-29T10:29:46.995Z,1.75
2022-12-29T10:32:19.906Z,1.50
2022-12-29T10:34:48.979Z,1.58
2022-12-29T10:37:19.320Z,1.50
2022-12-29T10:39:49.630Z,1.40
2022-12-29T10:42:23.334Z,1.45
2022-12-29T10:44:50.553Z,1.58
2022-12-29T10:47:19.909Z,1.60
2022-12-29T10:49:48.460Z,1.70
2022-12-29T10:52:17.433Z,1.60
2022-12-29T10:54:51.902Z,2.40
2022-12-29T10:57:26.133Z,1.95
2022-12-29T10:59:53.216Z,1.73
2022-12-29T11:02:27.799Z,1.50
2022-12-29T11:05:14.925Z,1.50
2022-12-29T11:07:42.050Z,1.58
2022-12-29T11:10:29.012Z,1.90
2022-12-29T11:12:58.565Z,1.50
2022-12-29T11:15:25.765Z,1.60
2022-12-29T11:17:55.444Z,1.67
2022-12-29T11:20:39.401Z,1.70
2022-12-29T11:23:22.269Z,1.63
2022-12-29T11:26:07.316Z,1.65
2022-12-29T11:28:34.393Z,1.70
2022-12-29T11:31:02.536Z,1.70
2022-12-29T11:33:30.595Z,1.88
2022-12-29T11:35:59.853Z,1.80
2022-12-29T11:38:33.027Z,1.70
2022-12-29T11:41:00.129Z,2.00
2022-12-29T11:43:31.597Z,1.75
2022-12-29T11:45:58.826Z,1.70
2022-12-29T11:48:34.032Z,1.65
2022-12-29T11:51:01.660Z,1.70
2022-12-29T11:53:33.434Z,1.80
2022-12-29T11:56:02.646Z,1.80
2022-12-29T11:58:30.284Z,1.50
2022-12-29T12:00:58.586Z,1.90
2022-12-29T12:03:26.331Z,1.40
2022-12-29T12:05:58.808Z,1.88
2022-12-29T12:08:25.885Z,1.40
2022-12-29T12:11:12.945Z,1.60
2022-12-29T12:13:45.636Z,1.60
2022-12-29T12:16:18.136Z,1.60
2022-12-29T12:19:05.268Z,1.65
2022-12-29T12:21:36.457Z,1.52
2022-12-29T12:24:06.276Z,1.60
2022-12-29T12:26:39.709Z,1.40
2022-12-29T12:29:15.100Z,1.80
2022-12-29T12:32:00.959Z,1.58
2022-12-29T12:34:32.221Z,1.77
2022-12-29T12:36:59.265Z,1.60
2022-12-29T12:39:29.138Z,1.83
2022-12-29T12:42:08.496Z,1.90
2022-12-29T12:44:46.477Z,2.00
2022-12-29T12:47:33.461Z,1.85
2022-12-29T12:50:20.560Z,1.90
2022-12-29T12:52:58.832Z,1.67
2022-12-29T12:55:35.921Z,1.75
2022-12-29T12:58:04.750Z,1.80
2022-12-29T13:00:35.805Z,1.70
2022-12-29T13:03:22.955Z,1.50
2022-12-29T13:06:05.593Z,1.40
2022-12-29T13:08:32.631Z,1.70
2022-12-29T13:11:00.682Z,1.55
2022-12-29T13:13:43.432Z,1.50
2022-12-29T13:16:14.524Z,1.77
2022-12-29T13:18:49.344Z,1.70
2022-12-29T13:21:26.721Z,2.00
2022-12-29T13:24:13.729Z,2.03
2022-12-29T13:26:46.896Z,1.73
2022-12-29T13:29:33.891Z,1.90
2022-12-29T13:32:24.079Z,1.98
2022-12-29T13:34:58.476Z,1.90
2022-12-29T13:37:27.943Z,1.80
2022-12-29T13:40:00.767Z,1.80
2022-12-29T13:42:28.252Z,1.70
2022-12-29T13:44:59.999Z,1.92
2022-12-29T13:47:29.945Z,2.17
2022-12-29T13:49:58.865Z,2.30
2022-12-29T13:52:34.041Z,2.35
2022-12-29T13:55:08.867Z,2.40
2022-12-29T13:57:49.624Z,1.90
2022-12-29T14:00:19.695Z,1.70
2022-12-29T14:02:46.953Z,1.90
2022-12-29T14:05:21.719Z,1.77
2022-12-29T14:07:49.496Z,1.98
2022-12-29T14:10:36.707Z,2.00
2022-12-29T14:13:07.440Z,1.95
2022-12-29T14:15:35.587Z,1.60
2022-12-29T14:18:06.788Z,1.63
2022-12-29T14:20:34.141Z,2.00
2022-12-29T14:23:03.392Z,2.17
2022-12-29T14:25:50.391Z,1.70
2022-12-29T14:28:17.986Z,1.90
2022-12-29T14:30:50.029Z,2.30
2022-12-29T14:33:17.341Z,2.28
2022-12-29T14:35:46.921Z,3.55
2022-12-29T14:38:17.201Z,2.65
2022-12-29T14:40:44.342Z,2.40
2022-12-29T14:43:18.516Z,2.00
2022-12-29T14:45:50.426Z,1.80
2022-12-29T14:48:37.493Z,1.70
2022-12-29T14:51:17.961Z,2.10
2022-12-29T14:53:45.016Z,2.33
2022-12-29T14:56:13.334Z,2.33
2022-12-29T14:58:45.839Z,2.10
2022-12-29T15:01:32.981Z,2.22
2022-12-29T15:04:02.183Z,2.10
2022-12-29T15:06:32.053Z,1.60
2022-12-29T15:08:59.095Z,1.90
2022-12-29T15:11:32.533Z,2.15
2022-12-29T15:13:59.694Z,2.13
2022-12-29T15:16:37.140Z,2.20
2022-12-29T15:19:06.170Z,2.30
2022-12-29T15:21:35.297Z,2.03
2022-12-29T15:24:02.508Z,2.25
2022-12-29T15:26:47.237Z,2.30
2022-12-29T15:29:34.232Z,2.33
2022-12-29T15:32:02.340Z,2.45
2022-12-29T15:34:32.568Z,2.17
2022-12-29T15:37:00.452Z,2.10
2022-12-29T15:39:31.800Z,2.10
2022-12-29T15:42:05.230Z,2.42
2022-12-29T15:44:41.232Z,2.20
2022-12-29T15:47:13.784Z,2.38
2022-12-29T15:49:42.955Z,3.03
2022-12-29T15:52:10.721Z,2.70
2022-12-29T15:54:38.734Z,2.58
2022-12-29T15:57:06.214Z,1.98
2022-12-29T15:59:34.517Z,2.85
2022-12-29T16:02:05.987Z,2.17
2022-12-29T16:04:54.281Z,3.17
2022-12-29T16:07:29.515Z,2.30
2022-12-29T16:09:57.797Z,2.40
2022-12-29T16:12:27.333Z,2.58
2022-12-29T16:14:57.701Z,2.22
2022-12-29T16:17:27.815Z,2.50
2022-12-29T16:19:57.954Z,2.20
2022-12-29T16:22:25.626Z,2.28
2022-12-29T16:25:02.408Z,1.90
2022-12-29T16:27:37.926Z,2.20
2022-12-29T16:30:07.814Z,2.13
2022-12-29T16:32:36.310Z,1.90
2022-12-29T16:35:12.317Z,2.00
2022-12-29T16:37:40.153Z,2.40
2022-12-29T16:40:26.872Z,2.47
2022-12-29T16:43:02.572Z,2.22
2022-12-29T16:45:49.634Z,2.00
2022-12-29T16:48:17.774Z,2.10
2022-12-29T16:50:45.486Z,2.30
2022-12-29T16:53:21.713Z,2.10
2022-12-29T16:55:49.680Z,2.33
2022-12-29T16:58:19.924Z,2.10
2022-12-29T17:00:47.617Z,2.50
2022-12-29T17:03:15.085Z,2.50
2022-12-29T17:05:42.388Z,4.22
2022-12-29T17:08:24.968Z,7.22
2022-12-29T17:11:15.189Z,9.18
2022-12-29T17:13:42.681Z,3.42
2022-12-29T17:16:12.700Z,3.45
2022-12-29T17:18:39.823Z,2.58
2022-12-29T17:21:07.015Z,2.80
2022-12-29T17:23:35.143Z,2.70
2022-12-29T17:26:03.210Z,3.00
2022-12-29T17:28:31.976Z,3.00
2022-12-29T17:31:01.519Z,3.28
2022-12-29T17:33:29.205Z,5.13
2022-12-29T17:35:56.307Z,4.53
2022-12-29T17:38:26.821Z,3.90
2022-12-29T17:40:54.178Z,3.40
2022-12-29T17:43:21.267Z,0.40
2022-12-29T17:45:51.698Z,0.15
2022-12-29T17:48:19.244Z,0.30
2022-12-29T17:50:48.140Z,0.40
2022-12-29T17:53:16.629Z,0.90
2022-12-29T17:55:43.936Z,0.50
2022-12-29T17:58:27.438Z,0.10
2022-12-29T18:00:55.679Z,0.10
2022-12-29T18:03:25.718Z,0.10
2022-12-29T18:05:52.931Z,0.10
2022-12-29T18:08:19.983Z,0.10
2022-12-29T18:10:47.408Z,0.20
2022-12-29T18:13:41.889Z,1.10
2022-12-29T18:16:13.358Z,0.30
2022-12-29T18:18:40.477Z,0.38
2022-12-29T18:21:07.734Z,0.30
2022-12-29T18:23:35.240Z,0.10
2022-12-29T18:26:02.353Z,0.38
2022-12-29T18:28:29.646Z,0.10
2022-12-29T18:30:57.634Z,0.20
2022-12-29T18:33:26.625Z,0.10
2022-12-29T18:35:58.125Z,0.10
2022-12-29T18:38:25.242Z,0.30
2022-12-29T18:40:52.973Z,0.57
2022-12-29T18:43:20.974Z,0.20
2022-12-29T18:45:48.145Z,0.20
2022-12-29T18:48:15.751Z,0.10
2022-12-29T18:50:43.000Z,0.20
2022-12-29T18:53:16.011Z,0.30
2022-12-29T18:55:43.082Z,0.40
2022-12-29T18:58:10.189Z,0.30
2022-12-29T19:00:37.430Z,0.20
2022-12-29T19:03:04.761Z,0.17
2022-12-29T19:05:35.740Z,0.70
2022-12-29T19:08:03.105Z,0.17
2022-12-29T19:10:30.207Z,0.10
2022-12-29T19:12:57.428Z,0.20
2022-12-29T19:15:26.955Z,0.13
2022-12-29T19:18:16.524Z,0.20
2022-12-29T19:20:43.081Z,0.30
2022-12-29T19:23:13.590Z,0.10
2022-12-29T19:25:40.993Z,0.00
2022-12-29T19:28:11.980Z,0.50
2022-12-29T19:30:39.559Z,0.50
2022-12-29T19:33:09.857Z,0.10
2022-12-29T19:35:37.578Z,0.30
2022-12-29T19:38:04.714Z,0.10
2022-12-29T19:40:32.167Z,0.40
2022-12-29T19:42:59.207Z,0.50
2022-12-29T19:45:26.265Z,0.10
2022-12-29T19:47:53.935Z,0.25
2022-12-29T19:50:21.306Z,0.70
2022-12-29T19:52:48.367Z,0.22
2022-12-29T19:55:16.802Z,0.32
2022-12-29T19:57:44.560Z,0.10
2022-12-29T20:00:13.472Z,0.30
2022-12-29T20:02:40.914Z,0.10
2022-12-29T20:05:08.383Z,0.13
2022-12-29T20:07:35.739Z,0.20
2022-12-29T20:10:02.936Z,0.50
2022-12-29T20:12:30.253Z,0.20
2022-12-29T20:14:57.347Z,0.70
2022-12-29T20:17:53.961Z,0.20
2022-12-29T20:20:11.537Z,0.10
2022-12-29T20:22:38.592Z,0.22
2022-12-29T20:25:43.090Z,0.20
2022-12-29T20:27:54.181Z,0.20
2022-12-29T20:30:21.431Z,0.30
2022-12-29T20:32:49.263Z,0.38
2022-12-29T20:35:16.803Z,0.10
2022-12-29T20:37:43.867Z,0.10
2022-12-29T20:40:10.863Z,0.25
2022-12-29T20:42:37.984Z,0.20
2022-12-29T20:45:05.267Z,0.10
2022-12-29T20:47:32.365Z,0.28
2022-12-29T20:49:59.478Z,0.35
2022-12-29T20:52:26.541Z,0.50
2022-12-29T20:54:53.635Z,0.20
2022-12-29T20:57:20.664Z,0.70
2022-12-29T20:59:47.350Z,0.30
2022-12-29T21:02:22.705Z,0.40
2022-12-29T21:07:36.626Z,1.20
2022-12-29T21:10:03.799Z,0.40
2022-12-29T21:12:30.899Z,0.30
2022-12-29T21:14:57.964Z,0.20
2022-12-29T21:17:25.076Z,0.20
2022-12-29T21:19:52.197Z,0.40
2022-12-29T21:22:19.329Z,0.60
2022-12-29T21:24:46.401Z,0.20
2022-12-29T21:27:13.430Z,0.10
2022-12-29T21:29:40.595Z,0.70
2022-12-29T21:32:07.674Z,0.20
2022-12-29T21:34:35.278Z,0.20
2022-12-29T21:37:02.504Z,0.20
2022-12-29T21:39:29.500Z,0.13
2022-12-29T21:42:00.476Z,0.10
2022-12-29T21:44:47.963Z,0.70
2022-12-29T21:47:15.092Z,0.10
2022-12-29T21:49:42.196Z,0.20
2022-12-29T21:52:09.204Z,0.20
2022-12-29T21:54:56.206Z,0.60
2022-12-29T21:57:43.177Z,0.50
2022-12-29T22:00:30.565Z,0.20
2022-12-29T22:03:23.177Z,0.30
2022-12-29T22:06:10.983Z,0.20
2022-12-29T22:08:58.144Z,0.15
2022-12-29T22:11:45.333Z,0.20
2022-12-29T22:14:12.505Z,0.10
2022-12-29T22:16:39.720Z,0.20
2022-12-29T22:19:08.616Z,0.20
2022-12-29T22:21:35.807Z,0.13
2022-12-29T22:24:02.904Z,0.30
2022-12-29T22:26:29.984Z,0.17
2022-12-29T22:28:57.229Z,0.00
2022-12-29T22:31:27.711Z,0.10
2022-12-29T22:33:55.992Z,0.05
2022-12-29T22:36:23.395Z,0.10
2022-12-29T22:38:50.715Z,0.10
2022-12-29T22:41:17.805Z,0.20
2022-12-29T22:43:45.103Z,0.17
2022-12-29T22:46:12.529Z,0.10
2022-12-29T22:48:39.704Z,0.10
2022-12-29T22:51:06.991Z,0.10
2022-12-29T22:53:34.098Z,0.30
2022-12-29T22:56:01.986Z,0.10
2022-12-29T22:58:29.018Z,0.00
2022-12-29T23:00:56.014Z,0.10
2022-12-29T23:03:23.261Z,0.10
2022-12-29T23:06:07.313Z,0.10
2022-12-29T23:08:36.675Z,0.10
2022-12-29T23:11:04.541Z,0.10
2022-12-29T23:13:31.843Z,0.10
2022-12-29T23:15:58.935Z,0.10
2022-12-29T23:18:26.311Z,0.20
2022-12-29T23:20:53.397Z,0.13
2022-12-29T23:23:46.467Z,0.40
2022-12-29T23:26:16.515Z,0.10
2022-12-29T23:28:43.612Z,0.20
2022-12-29T23:31:10.415Z,0.10
2022-12-29T23:33:37.695Z,0.20
2022-12-29T23:36:05.086Z,0.33
2022-12-29T23:38:32.231Z,0.10
2022-12-29T23:40:59.667Z,0.70
2022-12-29T23:43:26.988Z,0.10
2022-12-29T23:45:54.040Z,0.10
2022-12-29T23:48:21.108Z,0.10
2022-12-29T23:50:48.153Z,0.80
2022-12-29T23:53:15.214Z,0.20
2022-12-29T23:55:43.441Z,0.40
2022-12-29T23:58:11.222Z,0.17
